sensor_id;sensor_type;location;lat;lon;timestamp;P1;durP1;ratioP1;P2;durP2;ratioP2
19554;SDS011;9924;50.828;6.440;2022-08-21T00:00:12;12.82;;;5.40;;
19554;SDS011;9924;50.828;6.440;2022-08-21T00:02:45;18.20;;;5.78;;
19554;SDS011;9924;50.828;6.440;2022-08-21T00:05:13;13.13;;;6.28;;
19554;SDS011;9924;50.828;6.440;2022-08-21T00:07:40;11.52;;;5.10;;
19554;SDS011;9924;50.828;6.440;2022-08-21T00:10:06;11.23;;;5.32;;
19554;SDS011;9924;50.828;6.440;2022-08-21T00:12:32;14.65;;;6.10;;
19554;SDS011;9924;50.828;6.440;2022-08-21T00:14:58;9.60;;;5.70;;
19554;SDS011;9924;50.828;6.440;2022-08-21T00:17:24;12.70;;;6.03;;
19554;SDS011;9924;50.828;6.440;2022-08-21T00:19:50;17.13;;;7.35;;
19554;SDS011;9924;50.828;6.440;2022-08-21T00:22:16;23.55;;;6.75;;
19554;SDS011;9924;50.828;6.440;2022-08-21T00:24:42;15.07;;;6.22;;
19554;SDS011;9924;50.828;6.440;2022-08-21T00:27:07;18.67;;;7.88;;
19554;SDS011;9924;50.828;6.440;2022-08-21T00:29:33;16.75;;;7.78;;
19554;SDS011;9924;50.828;6.440;2022-08-21T00:31:59;15.95;;;7.35;;
19554;SDS011;9924;50.828;6.440;2022-08-21T00:34:24;16.88;;;8.95;;
19554;SDS011;9924;50.828;6.440;2022-08-21T00:36:50;16.98;;;8.27;;
19554;SDS011;9924;50.828;6.440;2022-08-21T00:39:16;20.60;;;7.03;;
19554;SDS011;9924;50.828;6.440;2022-08-21T00:41:42;15.35;;;6.80;;
19554;SDS011;9924;50.828;6.440;2022-08-21T00:44:09;12.32;;;6.80;;
19554;SDS011;9924;50.828;6.440;2022-08-21T00:46:37;14.18;;;6.65;;
19554;SDS011;9924;50.828;6.440;2022-08-21T00:49:04;15.30;;;7.32;;
19554;SDS011;9924;50.828;6.440;2022-08-21T00:51:36;16.10;;;6.30;;
19554;SDS011;9924;50.828;6.440;2022-08-21T00:54:06;25.33;;;10.02;;
19554;SDS011;9924;50.828;6.440;2022-08-21T00:56:34;16.90;;;5.82;;
19554;SDS011;9924;50.828;6.440;2022-08-21T00:59:00;8.65;;;5.70;;
19554;SDS011;9924;50.828;6.440;2022-08-21T01:01:27;8.95;;;5.40;;
19554;SDS011;9924;50.828;6.440;2022-08-21T01:03:52;8.70;;;5.13;;
19554;SDS011;9924;50.828;6.440;2022-08-21T01:06:18;11.68;;;5.22;;
19554;SDS011;9924;50.828;6.440;2022-08-21T01:08:44;11.98;;;5.10;;
19554;SDS011;9924;50.828;6.440;2022-08-21T01:11:10;9.95;;;4.70;;
19554;SDS011;9924;50.828;6.440;2022-08-21T01:13:36;8.85;;;5.38;;
19554;SDS011;9924;50.828;6.440;2022-08-21T01:16:05;9.48;;;4.72;;
19554;SDS011;9924;50.828;6.440;2022-08-21T01:18:34;10.27;;;4.60;;
19554;SDS011;9924;50.828;6.440;2022-08-21T01:23:31;8.23;;;4.07;;
19554;SDS011;9924;50.828;6.440;2022-08-21T01:25:57;7.82;;;4.75;;
19554;SDS011;9924;50.828;6.440;2022-08-21T01:28:23;9.25;;;4.32;;
19554;SDS011;9924;50.828;6.440;2022-08-21T01:30:50;8.70;;;4.60;;
19554;SDS011;9924;50.828;6.440;2022-08-21T01:33:20;9.73;;;4.45;;
19554;SDS011;9924;50.828;6.440;2022-08-21T01:35:49;8.63;;;4.53;;
19554;SDS011;9924;50.828;6.440;2022-08-21T01:38:15;8.85;;;5.15;;
19554;SDS011;9924;50.828;6.440;2022-08-21T01:40:40;13.32;;;5.22;;
19554;SDS011;9924;50.828;6.440;2022-08-21T01:43:06;12.77;;;4.95;;
19554;SDS011;9924;50.828;6.440;2022-08-21T01:45:32;11.63;;;4.70;;
19554;SDS011;9924;50.828;6.440;2022-08-21T01:47:57;9.43;;;4.88;;
19554;SDS011;9924;50.828;6.440;2022-08-21T01:50:23;8.63;;;4.45;;
19554;SDS011;9924;50.828;6.440;2022-08-21T01:52:49;11.52;;;4.60;;
19554;SDS011;9924;50.828;6.440;2022-08-21T01:55:16;8.40;;;4.35;;
19554;SDS011;9924;50.828;6.440;2022-08-21T01:57:44;7.30;;;4.15;;
19554;SDS011;9924;50.828;6.440;2022-08-21T02:00:11;7.88;;;4.60;;
19554;SDS011;9924;50.828;6.440;2022-08-21T02:02:39;9.48;;;4.80;;
19554;SDS011;9924;50.828;6.440;2022-08-21T02:05:06;7.68;;;4.13;;
19554;SDS011;9924;50.828;6.440;2022-08-21T02:07:36;10.68;;;4.30;;
19554;SDS011;9924;50.828;6.440;2022-08-21T02:10:07;8.77;;;4.45;;
19554;SDS011;9924;50.828;6.440;2022-08-21T02:12:35;10.35;;;5.15;;
19554;SDS011;9924;50.828;6.440;2022-08-21T02:15:01;12.13;;;5.28;;
19554;SDS011;9924;50.828;6.440;2022-08-21T02:17:36;13.02;;;4.93;;
19554;SDS011;9924;50.828;6.440;2022-08-21T02:20:03;7.97;;;4.90;;
19554;SDS011;9924;50.828;6.440;2022-08-21T02:22:29;10.90;;;5.15;;
19554;SDS011;9924;50.828;6.440;2022-08-21T02:24:55;10.13;;;4.90;;
19554;SDS011;9924;50.828;6.440;2022-08-21T02:27:22;7.82;;;5.28;;
19554;SDS011;9924;50.828;6.440;2022-08-21T02:29:48;7.50;;;4.28;;
19554;SDS011;9924;50.828;6.440;2022-08-21T02:32:14;10.13;;;5.30;;
19554;SDS011;9924;50.828;6.440;2022-08-21T02:34:40;6.07;;;4.55;;
19554;SDS011;9924;50.828;6.440;2022-08-21T02:37:05;12.45;;;4.38;;
19554;SDS011;9924;50.828;6.440;2022-08-21T02:39:31;6.93;;;4.80;;
19554;SDS011;9924;50.828;6.440;2022-08-21T02:41:57;6.65;;;4.40;;
19554;SDS011;9924;50.828;6.440;2022-08-21T02:44:23;7.28;;;4.45;;
19554;SDS011;9924;50.828;6.440;2022-08-21T02:46:49;11.02;;;5.13;;
19554;SDS011;9924;50.828;6.440;2022-08-21T02:49:14;7.70;;;4.35;;
19554;SDS011;9924;50.828;6.440;2022-08-21T02:51:40;8.52;;;4.95;;
19554;SDS011;9924;50.828;6.440;2022-08-21T02:54:06;10.57;;;4.78;;
19554;SDS011;9924;50.828;6.440;2022-08-21T02:56:32;7.80;;;4.63;;
19554;SDS011;9924;50.828;6.440;2022-08-21T02:58:57;7.15;;;4.63;;
19554;SDS011;9924;50.828;6.440;2022-08-21T03:01:23;8.18;;;4.30;;
19554;SDS011;9924;50.828;6.440;2022-08-21T03:03:49;10.43;;;4.57;;
19554;SDS011;9924;50.828;6.440;2022-08-21T03:06:15;8.18;;;5.30;;
19554;SDS011;9924;50.828;6.440;2022-08-21T03:08:44;9.50;;;5.07;;
19554;SDS011;9924;50.828;6.440;2022-08-21T03:11:10;8.45;;;5.00;;
19554;SDS011;9924;50.828;6.440;2022-08-21T03:13:36;6.47;;;5.03;;
19554;SDS011;9924;50.828;6.440;2022-08-21T03:16:03;9.25;;;4.72;;
19554;SDS011;9924;50.828;6.440;2022-08-21T03:18:29;6.97;;;5.20;;
19554;SDS011;9924;50.828;6.440;2022-08-21T03:20:55;9.45;;;5.93;;
19554;SDS011;9924;50.828;6.440;2022-08-21T03:23:21;11.05;;;6.07;;
19554;SDS011;9924;50.828;6.440;2022-08-21T03:25:47;8.75;;;6.50;;
19554;SDS011;9924;50.828;6.440;2022-08-21T03:28:18;9.60;;;6.38;;
19554;SDS011;9924;50.828;6.440;2022-08-21T03:30:46;8.82;;;6.28;;
19554;SDS011;9924;50.828;6.440;2022-08-21T03:33:13;8.18;;;5.97;;
19554;SDS011;9924;50.828;6.440;2022-08-21T03:35:39;8.82;;;6.18;;
19554;SDS011;9924;50.828;6.440;2022-08-21T03:38:06;6.60;;;5.85;;
19554;SDS011;9924;50.828;6.440;2022-08-21T03:40:32;11.10;;;6.00;;
19554;SDS011;9924;50.828;6.440;2022-08-21T03:42:58;10.50;;;5.75;;
19554;SDS011;9924;50.828;6.440;2022-08-21T03:45:24;7.85;;;5.30;;
19554;SDS011;9924;50.828;6.440;2022-08-21T03:50:26;6.47;;;5.07;;
19554;SDS011;9924;50.828;6.440;2022-08-21T03:52:54;9.32;;;5.60;;
19554;SDS011;9924;50.828;6.440;2022-08-21T03:55:21;8.43;;;5.50;;
19554;SDS011;9924;50.828;6.440;2022-08-21T03:57:47;6.57;;;5.63;;
19554;SDS011;9924;50.828;6.440;2022-08-21T04:00:14;7.47;;;5.38;;
19554;SDS011;9924;50.828;6.440;2022-08-21T04:02:41;8.90;;;5.53;;
19554;SDS011;9924;50.828;6.440;2022-08-21T04:05:09;9.07;;;5.43;;
19554;SDS011;9924;50.828;6.440;2022-08-21T04:07:36;9.48;;;5.38;;
19554;SDS011;9924;50.828;6.440;2022-08-21T04:10:03;6.88;;;5.22;;
19554;SDS011;9924;50.828;6.440;2022-08-21T04:12:30;6.63;;;5.22;;
19554;SDS011;9924;50.828;6.440;2022-08-21T04:14:56;8.20;;;5.50;;
19554;SDS011;9924;50.828;6.440;2022-08-21T04:17:21;8.85;;;5.57;;
19554;SDS011;9924;50.828;6.440;2022-08-21T04:19:47;12.05;;;5.47;;
19554;SDS011;9924;50.828;6.440;2022-08-21T04:22:14;9.38;;;5.43;;
19554;SDS011;9924;50.828;6.440;2022-08-21T04:24:40;7.90;;;5.70;;
19554;SDS011;9924;50.828;6.440;2022-08-21T04:27:06;9.07;;;5.32;;
19554;SDS011;9924;50.828;6.440;2022-08-21T04:29:32;11.45;;;5.93;;
19554;SDS011;9924;50.828;6.440;2022-08-21T04:31:57;9.32;;;5.50;;
19554;SDS011;9924;50.828;6.440;2022-08-21T04:34:23;7.65;;;5.38;;
19554;SDS011;9924;50.828;6.440;2022-08-21T04:36:49;9.55;;;5.65;;
19554;SDS011;9924;50.828;6.440;2022-08-21T04:39:15;9.38;;;5.70;;
19554;SDS011;9924;50.828;6.440;2022-08-21T04:41:41;8.82;;;5.85;;
19554;SDS011;9924;50.828;6.440;2022-08-21T04:44:07;10.57;;;5.30;;
19554;SDS011;9924;50.828;6.440;2022-08-21T04:46:33;9.02;;;5.38;;
19554;SDS011;9924;50.828;6.440;2022-08-21T04:48:59;13.43;;;5.60;;
19554;SDS011;9924;50.828;6.440;2022-08-21T04:51:27;6.90;;;5.05;;
19554;SDS011;9924;50.828;6.440;2022-08-21T04:56:39;7.63;;;5.10;;
19554;SDS011;9924;50.828;6.440;2022-08-21T04:59:20;9.68;;;5.20;;
19554;SDS011;9924;50.828;6.440;2022-08-21T05:01:52;10.77;;;4.80;;
19554;SDS011;9924;50.828;6.440;2022-08-21T05:04:22;8.07;;;4.32;;
19554;SDS011;9924;50.828;6.440;2022-08-21T05:06:52;8.43;;;5.03;;
19554;SDS011;9924;50.828;6.440;2022-08-21T05:09:22;6.88;;;4.63;;
19554;SDS011;9924;50.828;6.440;2022-08-21T05:11:49;10.15;;;4.32;;
19554;SDS011;9924;50.828;6.440;2022-08-21T05:14:16;8.07;;;4.88;;
19554;SDS011;9924;50.828;6.440;2022-08-21T05:16:42;9.10;;;5.38;;
19554;SDS011;9924;50.828;6.440;2022-08-21T05:19:09;7.57;;;4.47;;
19554;SDS011;9924;50.828;6.440;2022-08-21T05:21:36;5.30;;;4.13;;
19554;SDS011;9924;50.828;6.440;2022-08-21T05:24:04;8.50;;;4.57;;
19554;SDS011;9924;50.828;6.440;2022-08-21T05:26:30;10.48;;;4.00;;
19554;SDS011;9924;50.828;6.440;2022-08-21T05:28:56;10.38;;;3.78;;
19554;SDS011;9924;50.828;6.440;2022-08-21T05:31:23;4.82;;;2.92;;
19554;SDS011;9924;50.828;6.440;2022-08-21T05:33:49;5.60;;;2.72;;
19554;SDS011;9924;50.828;6.440;2022-08-21T05:36:15;7.88;;;3.00;;
19554;SDS011;9924;50.828;6.440;2022-08-21T05:38:43;5.60;;;2.42;;
19554;SDS011;9924;50.828;6.440;2022-08-21T05:41:09;5.68;;;3.03;;
19554;SDS011;9924;50.828;6.440;2022-08-21T05:43:35;7.13;;;2.80;;
19554;SDS011;9924;50.828;6.440;2022-08-21T05:46:04;7.85;;;2.78;;
19554;SDS011;9924;50.828;6.440;2022-08-21T05:48:31;4.72;;;2.63;;
19554;SDS011;9924;50.828;6.440;2022-08-21T05:50:58;5.97;;;2.65;;
19554;SDS011;9924;50.828;6.440;2022-08-21T05:53:28;7.53;;;2.83;;
19554;SDS011;9924;50.828;6.440;2022-08-21T05:55:54;7.07;;;2.40;;
19554;SDS011;9924;50.828;6.440;2022-08-21T05:58:20;7.88;;;2.83;;
19554;SDS011;9924;50.828;6.440;2022-08-21T06:00:48;4.35;;;2.28;;
19554;SDS011;9924;50.828;6.440;2022-08-21T06:03:16;6.15;;;2.53;;
19554;SDS011;9924;50.828;6.440;2022-08-21T06:05:44;6.18;;;2.05;;
19554;SDS011;9924;50.828;6.440;2022-08-21T06:08:10;6.30;;;2.25;;
19554;SDS011;9924;50.828;6.440;2022-08-21T06:10:36;3.88;;;1.83;;
19554;SDS011;9924;50.828;6.440;2022-08-21T06:13:02;8.63;;;2.22;;
19554;SDS011;9924;50.828;6.440;2022-08-21T06:15:29;4.13;;;1.98;;
19554;SDS011;9924;50.828;6.440;2022-08-21T06:17:56;5.75;;;2.10;;
19554;SDS011;9924;50.828;6.440;2022-08-21T06:20:21;6.75;;;2.92;;
19554;SDS011;9924;50.828;6.440;2022-08-21T06:22:48;8.55;;;2.97;;
19554;SDS011;9924;50.828;6.440;2022-08-21T06:25:14;7.18;;;2.17;;
19554;SDS011;9924;50.828;6.440;2022-08-21T06:27:39;6.32;;;1.88;;
19554;SDS011;9924;50.828;6.440;2022-08-21T06:30:06;3.75;;;1.65;;
19554;SDS011;9924;50.828;6.440;2022-08-21T06:32:32;6.45;;;1.60;;
19554;SDS011;9924;50.828;6.440;2022-08-21T06:34:59;7.70;;;1.77;;
19554;SDS011;9924;50.828;6.440;2022-08-21T06:37:25;5.10;;;1.40;;
19554;SDS011;9924;50.828;6.440;2022-08-21T06:39:51;4.97;;;1.60;;
19554;SDS011;9924;50.828;6.440;2022-08-21T06:42:17;5.25;;;1.77;;
19554;SDS011;9924;50.828;6.440;2022-08-21T06:44:43;6.65;;;1.60;;
19554;SDS011;9924;50.828;6.440;2022-08-21T06:47:09;5.68;;;1.35;;
19554;SDS011;9924;50.828;6.440;2022-08-21T06:49:35;3.22;;;1.58;;
19554;SDS011;9924;50.828;6.440;2022-08-21T06:52:01;8.18;;;1.60;;
19554;SDS011;9924;50.828;6.440;2022-08-21T06:54:27;8.48;;;1.83;;
19554;SDS011;9924;50.828;6.440;2022-08-21T06:56:53;3.80;;;1.15;;
19554;SDS011;9924;50.828;6.440;2022-08-21T06:59:19;4.53;;;1.35;;
19554;SDS011;9924;50.828;6.440;2022-08-21T07:01:44;2.97;;;1.33;;
19554;SDS011;9924;50.828;6.440;2022-08-21T07:04:11;7.03;;;1.33;;
19554;SDS011;9924;50.828;6.440;2022-08-21T07:06:36;6.65;;;1.40;;
19554;SDS011;9924;50.828;6.440;2022-08-21T07:09:03;9.25;;;1.70;;
19554;SDS011;9924;50.828;6.440;2022-08-21T07:11:29;4.63;;;1.38;;
19554;SDS011;9924;50.828;6.440;2022-08-21T07:13:54;8.50;;;1.45;;
19554;SDS011;9924;50.828;6.440;2022-08-21T07:16:21;4.80;;;1.00;;
19554;SDS011;9924;50.828;6.440;2022-08-21T07:18:47;4.55;;;1.50;;
19554;SDS011;9924;50.828;6.440;2022-08-21T07:21:14;6.45;;;1.50;;
19554;SDS011;9924;50.828;6.440;2022-08-21T07:23:41;4.20;;;1.08;;
19554;SDS011;9924;50.828;6.440;2022-08-21T07:26:11;7.40;;;1.30;;
19554;SDS011;9924;50.828;6.440;2022-08-21T07:28:37;4.72;;;1.13;;
19554;SDS011;9924;50.828;6.440;2022-08-21T07:31:04;6.10;;;1.48;;
19554;SDS011;9924;50.828;6.440;2022-08-21T07:33:32;4.60;;;1.40;;
19554;SDS011;9924;50.828;6.440;2022-08-21T07:35:59;4.43;;;1.20;;
19554;SDS011;9924;50.828;6.440;2022-08-21T07:38:24;5.65;;;1.42;;
19554;SDS011;9924;50.828;6.440;2022-08-21T07:40:51;4.68;;;1.40;;
19554;SDS011;9924;50.828;6.440;2022-08-21T07:43:19;3.50;;;1.58;;
19554;SDS011;9924;50.828;6.440;2022-08-21T07:45:46;7.88;;;1.30;;
19554;SDS011;9924;50.828;6.440;2022-08-21T07:48:14;8.90;;;1.73;;
19554;SDS011;9924;50.828;6.440;2022-08-21T07:50:40;6.13;;;1.15;;
19554;SDS011;9924;50.828;6.440;2022-08-21T07:53:07;5.15;;;1.23;;
19554;SDS011;9924;50.828;6.440;2022-08-21T07:55:33;5.68;;;1.35;;
19554;SDS011;9924;50.828;6.440;2022-08-21T07:57:59;4.43;;;1.15;;
19554;SDS011;9924;50.828;6.440;2022-08-21T08:00:26;3.70;;;1.20;;
19554;SDS011;9924;50.828;6.440;2022-08-21T08:02:53;3.03;;;0.98;;
19554;SDS011;9924;50.828;6.440;2022-08-21T08:05:22;3.53;;;1.10;;
19554;SDS011;9924;50.828;6.440;2022-08-21T08:07:51;5.00;;;1.25;;
19554;SDS011;9924;50.828;6.440;2022-08-21T08:10:18;3.80;;;1.35;;
19554;SDS011;9924;50.828;6.440;2022-08-21T08:12:44;5.50;;;1.25;;
19554;SDS011;9924;50.828;6.440;2022-08-21T08:15:22;6.18;;;1.15;;
19554;SDS011;9924;50.828;6.440;2022-08-21T08:17:49;7.65;;;2.47;;
19554;SDS011;9924;50.828;6.440;2022-08-21T08:20:16;4.28;;;1.40;;
19554;SDS011;9924;50.828;6.440;2022-08-21T08:22:43;4.22;;;1.27;;
19554;SDS011;9924;50.828;6.440;2022-08-21T08:25:10;4.35;;;1.65;;
19554;SDS011;9924;50.828;6.440;2022-08-21T08:27:37;4.97;;;1.50;;
19554;SDS011;9924;50.828;6.440;2022-08-21T08:30:04;5.10;;;1.23;;
19554;SDS011;9924;50.828;6.440;2022-08-21T08:32:31;6.78;;;1.38;;
19554;SDS011;9924;50.828;6.440;2022-08-21T08:34:56;8.20;;;1.33;;
19554;SDS011;9924;50.828;6.440;2022-08-21T08:37:22;6.88;;;1.70;;
19554;SDS011;9924;50.828;6.440;2022-08-21T08:39:48;7.28;;;1.50;;
19554;SDS011;9924;50.828;6.440;2022-08-21T08:44:43;4.15;;;1.23;;
19554;SDS011;9924;50.828;6.440;2022-08-21T08:47:11;3.00;;;1.10;;
19554;SDS011;9924;50.828;6.440;2022-08-21T08:49:43;4.95;;;1.20;;
19554;SDS011;9924;50.828;6.440;2022-08-21T08:52:43;3.67;;;1.27;;
19554;SDS011;9924;50.828;6.440;2022-08-21T08:55:21;4.40;;;1.08;;
19554;SDS011;9924;50.828;6.440;2022-08-21T08:57:52;2.88;;;1.08;;
19554;SDS011;9924;50.828;6.440;2022-08-21T09:00:20;5.95;;;1.52;;
19554;SDS011;9924;50.828;6.440;2022-08-21T09:02:47;6.70;;;1.15;;
19554;SDS011;9924;50.828;6.440;2022-08-21T09:05:21;4.55;;;1.30;;
19554;SDS011;9924;50.828;6.440;2022-08-21T09:10:43;4.95;;;1.13;;
19554;SDS011;9924;50.828;6.440;2022-08-21T09:13:46;4.82;;;1.27;;
19554;SDS011;9924;50.828;6.440;2022-08-21T09:16:35;4.68;;;1.17;;
19554;SDS011;9924;50.828;6.440;2022-08-21T09:19:25;4.03;;;1.20;;
19554;SDS011;9924;50.828;6.440;2022-08-21T09:21:57;6.03;;;1.70;;
19554;SDS011;9924;50.828;6.440;2022-08-21T09:24:32;4.80;;;1.35;;
19554;SDS011;9924;50.828;6.440;2022-08-21T09:27:06;5.20;;;1.83;;
19554;SDS011;9924;50.828;6.440;2022-08-21T09:29:39;4.03;;;1.45;;
19554;SDS011;9924;50.828;6.440;2022-08-21T09:32:15;4.50;;;1.35;;
19554;SDS011;9924;50.828;6.440;2022-08-21T09:34:55;5.97;;;1.50;;
19554;SDS011;9924;50.828;6.440;2022-08-21T09:37:24;5.40;;;1.20;;
19554;SDS011;9924;50.828;6.440;2022-08-21T09:39:54;3.95;;;1.27;;
19554;SDS011;9924;50.828;6.440;2022-08-21T09:42:30;5.20;;;1.35;;
19554;SDS011;9924;50.828;6.440;2022-08-21T09:45:14;4.18;;;1.38;;
19554;SDS011;9924;50.828;6.440;2022-08-21T09:47:43;8.02;;;1.70;;
19554;SDS011;9924;50.828;6.440;2022-08-21T09:50:15;4.55;;;1.55;;
19554;SDS011;9924;50.828;6.440;2022-08-21T09:52:44;6.35;;;1.52;;
19554;SDS011;9924;50.828;6.440;2022-08-21T09:55:18;5.53;;;1.60;;
19554;SDS011;9924;50.828;6.440;2022-08-21T09:58:15;5.97;;;2.00;;
19554;SDS011;9924;50.828;6.440;2022-08-21T10:00:42;3.17;;;1.50;;
19554;SDS011;9924;50.828;6.440;2022-08-21T10:03:20;4.15;;;1.60;;
19554;SDS011;9924;50.828;6.440;2022-08-21T10:05:54;2.97;;;1.15;;
19554;SDS011;9924;50.828;6.440;2022-08-21T10:08:21;6.57;;;1.60;;
19554;SDS011;9924;50.828;6.440;2022-08-21T10:10:50;6.78;;;1.80;;
19554;SDS011;9924;50.828;6.440;2022-08-21T10:13:30;6.18;;;1.38;;
19554;SDS011;9924;50.828;6.440;2022-08-21T10:30:57;5.78;;;1.23;;
19554;SDS011;9924;50.828;6.440;2022-08-21T10:33:36;5.75;;;1.63;;
19554;SDS011;9924;50.828;6.440;2022-08-21T10:42:05;5.85;;;1.27;;
19554;SDS011;9924;50.828;6.440;2022-08-21T10:47:30;6.55;;;1.50;;
19554;SDS011;9924;50.828;6.440;2022-08-21T10:50:44;5.18;;;1.40;;
19554;SDS011;9924;50.828;6.440;2022-08-21T10:55:30;4.15;;;1.40;;
19554;SDS011;9924;50.828;6.440;2022-08-21T10:57:58;5.90;;;1.60;;
19554;SDS011;9924;50.828;6.440;2022-08-21T11:00:34;4.65;;;1.30;;
19554;SDS011;9924;50.828;6.440;2022-08-21T11:03:15;8.57;;;1.48;;
19554;SDS011;9924;50.828;6.440;2022-08-21T11:05:54;2.70;;;1.02;;
19554;SDS011;9924;50.828;6.440;2022-08-21T11:08:33;6.60;;;1.80;;
19554;SDS011;9924;50.828;6.440;2022-08-21T11:11:10;7.60;;;1.83;;
19554;SDS011;9924;50.828;6.440;2022-08-21T11:13:48;7.50;;;1.10;;
19554;SDS011;9924;50.828;6.440;2022-08-21T11:21:43;4.15;;;1.60;;
19554;SDS011;9924;50.828;6.440;2022-08-21T11:29:29;3.95;;;1.40;;
19554;SDS011;9924;50.828;6.440;2022-08-21T11:51:45;3.05;;;1.40;;
19554;SDS011;9924;50.828;6.440;2022-08-21T11:57:04;5.07;;;1.45;;
19554;SDS011;9924;50.828;6.440;2022-08-21T11:59:39;5.43;;;1.33;;
19554;SDS011;9924;50.828;6.440;2022-08-21T12:02:11;3.40;;;1.63;;
19554;SDS011;9924;50.828;6.440;2022-08-21T12:04:47;3.75;;;1.38;;
19554;SDS011;9924;50.828;6.440;2022-08-21T12:10:16;4.63;;;1.58;;
19554;SDS011;9924;50.828;6.440;2022-08-21T12:12:46;5.50;;;1.80;;
19554;SDS011;9924;50.828;6.440;2022-08-21T12:18:01;1.90;;;1.10;;
19554;SDS011;9924;50.828;6.440;2022-08-21T12:25:38;4.95;;;1.48;;
19554;SDS011;9924;50.828;6.440;2022-08-21T12:28:10;4.00;;;1.20;;
19554;SDS011;9924;50.828;6.440;2022-08-21T12:30:40;4.20;;;1.48;;
19554;SDS011;9924;50.828;6.440;2022-08-21T12:36:11;3.90;;;1.50;;
19554;SDS011;9924;50.828;6.440;2022-08-21T12:38:48;2.67;;;1.35;;
19554;SDS011;9924;50.828;6.440;2022-08-21T12:42:00;7.00;;;1.75;;
19554;SDS011;9924;50.828;6.440;2022-08-21T12:44:27;3.55;;;1.58;;
19554;SDS011;9924;50.828;6.440;2022-08-21T12:47:04;2.80;;;1.23;;
19554;SDS011;9924;50.828;6.440;2022-08-21T12:49:41;3.70;;;1.50;;
19554;SDS011;9924;50.828;6.440;2022-08-21T12:52:27;5.47;;;1.50;;
19554;SDS011;9924;50.828;6.440;2022-08-21T12:54:57;5.35;;;1.50;;
19554;SDS011;9924;50.828;6.440;2022-08-21T12:57:24;4.05;;;1.20;;
19554;SDS011;9924;50.828;6.440;2022-08-21T12:59:53;3.75;;;1.58;;
19554;SDS011;9924;50.828;6.440;2022-08-21T13:02:22;3.95;;;1.60;;
19554;SDS011;9924;50.828;6.440;2022-08-21T13:04:51;4.13;;;1.48;;
19554;SDS011;9924;50.828;6.440;2022-08-21T13:07:27;7.35;;;1.60;;
19554;SDS011;9924;50.828;6.440;2022-08-21T13:10:00;4.38;;;1.58;;
19554;SDS011;9924;50.828;6.440;2022-08-21T13:12:29;3.42;;;1.27;;
19554;SDS011;9924;50.828;6.440;2022-08-21T13:14:57;5.55;;;1.60;;
19554;SDS011;9924;50.828;6.440;2022-08-21T13:17:25;3.95;;;1.23;;
19554;SDS011;9924;50.828;6.440;2022-08-21T13:20:05;4.40;;;1.42;;
19554;SDS011;9924;50.828;6.440;2022-08-21T13:22:39;4.20;;;1.50;;
19554;SDS011;9924;50.828;6.440;2022-08-21T13:25:11;4.85;;;1.52;;
19554;SDS011;9924;50.828;6.440;2022-08-21T13:27:42;4.35;;;1.30;;
19554;SDS011;9924;50.828;6.440;2022-08-21T13:30:19;5.13;;;1.67;;
19554;SDS011;9924;50.828;6.440;2022-08-21T13:32:50;5.53;;;1.60;;
19554;SDS011;9924;50.828;6.440;2022-08-21T13:35:25;3.83;;;1.30;;
19554;SDS011;9924;50.828;6.440;2022-08-21T13:38:12;2.03;;;1.00;;
19554;SDS011;9924;50.828;6.440;2022-08-21T13:40:44;3.30;;;1.25;;
19554;SDS011;9924;50.828;6.440;2022-08-21T13:43:14;3.13;;;1.42;;
19554;SDS011;9924;50.828;6.440;2022-08-21T13:45:44;3.58;;;1.45;;
19554;SDS011;9924;50.828;6.440;2022-08-21T13:48:14;8.30;;;1.35;;
19554;SDS011;9924;50.828;6.440;2022-08-21T13:50:40;3.00;;;1.08;;
19554;SDS011;9924;50.828;6.440;2022-08-21T13:53:18;5.85;;;1.52;;
19554;SDS011;9924;50.828;6.440;2022-08-21T13:55:51;5.68;;;1.58;;
19554;SDS011;9924;50.828;6.440;2022-08-21T13:58:27;5.07;;;1.75;;
19554;SDS011;9924;50.828;6.440;2022-08-21T14:00:53;5.03;;;1.65;;
19554;SDS011;9924;50.828;6.440;2022-08-21T14:03:33;5.13;;;1.20;;
19554;SDS011;9924;50.828;6.440;2022-08-21T14:06:02;4.78;;;1.13;;
19554;SDS011;9924;50.828;6.440;2022-08-21T14:08:40;2.92;;;1.00;;
19554;SDS011;9924;50.828;6.440;2022-08-21T14:11:09;3.97;;;1.48;;
19554;SDS011;9924;50.828;6.440;2022-08-21T14:13:42;7.53;;;1.45;;
19554;SDS011;9924;50.828;6.440;2022-08-21T14:16:18;4.10;;;1.10;;
19554;SDS011;9924;50.828;6.440;2022-08-21T14:18:48;8.30;;;1.35;;
19554;SDS011;9924;50.828;6.440;2022-08-21T14:21:24;4.03;;;1.10;;
19554;SDS011;9924;50.828;6.440;2022-08-21T14:24:05;3.85;;;1.70;;
19554;SDS011;9924;50.828;6.440;2022-08-21T14:26:42;5.47;;;1.88;;
19554;SDS011;9924;50.828;6.440;2022-08-21T14:29:19;3.63;;;1.40;;
19554;SDS011;9924;50.828;6.440;2022-08-21T14:31:55;3.72;;;1.10;;
19554;SDS011;9924;50.828;6.440;2022-08-21T14:34:23;5.78;;;1.20;;
19554;SDS011;9924;50.828;6.440;2022-08-21T14:36:51;3.63;;;1.20;;
19554;SDS011;9924;50.828;6.440;2022-08-21T14:39:17;2.60;;;1.02;;
19554;SDS011;9924;50.828;6.440;2022-08-21T14:41:43;2.75;;;1.10;;
19554;SDS011;9924;50.828;6.440;2022-08-21T14:44:12;2.42;;;1.20;;
19554;SDS011;9924;50.828;6.440;2022-08-21T14:46:38;4.80;;;1.13;;
19554;SDS011;9924;50.828;6.440;2022-08-21T14:49:04;5.57;;;1.20;;
19554;SDS011;9924;50.828;6.440;2022-08-21T14:51:30;3.75;;;1.30;;
19554;SDS011;9924;50.828;6.440;2022-08-21T14:53:56;3.80;;;1.17;;
19554;SDS011;9924;50.828;6.440;2022-08-21T14:56:21;3.97;;;1.20;;
19554;SDS011;9924;50.828;6.440;2022-08-21T14:58:50;4.72;;;1.50;;
19554;SDS011;9924;50.828;6.440;2022-08-21T15:01:21;4.60;;;1.40;;
19554;SDS011;9924;50.828;6.440;2022-08-21T15:03:47;7.68;;;1.42;;
19554;SDS011;9924;50.828;6.440;2022-08-21T15:06:13;4.15;;;1.23;;
19554;SDS011;9924;50.828;6.440;2022-08-21T15:08:41;5.82;;;1.20;;
19554;SDS011;9924;50.828;6.440;2022-08-21T15:11:07;2.90;;;1.02;;
19554;SDS011;9924;50.828;6.440;2022-08-21T15:13:36;4.68;;;1.20;;
19554;SDS011;9924;50.828;6.440;2022-08-21T15:16:02;4.70;;;1.25;;
19554;SDS011;9924;50.828;6.440;2022-08-21T15:18:29;3.05;;;1.10;;
19554;SDS011;9924;50.828;6.440;2022-08-21T15:20:54;2.88;;;1.40;;
19554;SDS011;9924;50.828;6.440;2022-08-21T15:23:21;4.72;;;1.50;;
19554;SDS011;9924;50.828;6.440;2022-08-21T15:25:48;2.97;;;1.30;;
19554;SDS011;9924;50.828;6.440;2022-08-21T15:28:15;3.47;;;1.00;;
19554;SDS011;9924;50.828;6.440;2022-08-21T15:30:43;4.43;;;1.70;;
19554;SDS011;9924;50.828;6.440;2022-08-21T15:33:10;3.58;;;1.13;;
19554;SDS011;9924;50.828;6.440;2022-08-21T15:35:36;2.65;;;1.10;;
19554;SDS011;9924;50.828;6.440;2022-08-21T15:38:02;4.82;;;1.27;;
19554;SDS011;9924;50.828;6.440;2022-08-21T15:40:28;4.70;;;1.30;;
19554;SDS011;9924;50.828;6.440;2022-08-21T15:42:58;4.15;;;1.23;;
19554;SDS011;9924;50.828;6.440;2022-08-21T15:45:26;3.80;;;1.48;;
19554;SDS011;9924;50.828;6.440;2022-08-21T15:47:53;2.95;;;1.10;;
19554;SDS011;9924;50.828;6.440;2022-08-21T15:50:19;4.65;;;1.67;;
19554;SDS011;9924;50.828;6.440;2022-08-21T15:52:46;4.40;;;1.27;;
19554;SDS011;9924;50.828;6.440;2022-08-21T15:55:11;5.15;;;1.40;;
19554;SDS011;9924;50.828;6.440;2022-08-21T15:57:37;3.97;;;1.50;;
19554;SDS011;9924;50.828;6.440;2022-08-21T16:00:16;2.33;;;0.90;;
19554;SDS011;9924;50.828;6.440;2022-08-21T16:02:49;5.03;;;1.27;;
19554;SDS011;9924;50.828;6.440;2022-08-21T16:05:21;2.25;;;1.30;;
19554;SDS011;9924;50.828;6.440;2022-08-21T16:07:47;2.55;;;1.02;;
19554;SDS011;9924;50.828;6.440;2022-08-21T16:10:15;3.17;;;1.13;;
19554;SDS011;9924;50.828;6.440;2022-08-21T16:12:45;3.50;;;1.30;;
19554;SDS011;9924;50.828;6.440;2022-08-21T16:15:14;4.28;;;1.48;;
19554;SDS011;9924;50.828;6.440;2022-08-21T16:17:42;3.20;;;1.10;;
19554;SDS011;9924;50.828;6.440;2022-08-21T16:20:13;4.15;;;1.50;;
19554;SDS011;9924;50.828;6.440;2022-08-21T16:22:42;4.90;;;1.38;;
19554;SDS011;9924;50.828;6.440;2022-08-21T16:25:07;3.30;;;1.40;;
19554;SDS011;9924;50.828;6.440;2022-08-21T16:27:33;6.47;;;2.47;;
19554;SDS011;9924;50.828;6.440;2022-08-21T16:30:00;3.08;;;1.50;;
19554;SDS011;9924;50.828;6.440;2022-08-21T16:32:28;4.07;;;1.60;;
19554;SDS011;9924;50.828;6.440;2022-08-21T16:34:54;5.07;;;1.65;;
19554;SDS011;9924;50.828;6.440;2022-08-21T16:37:20;7.10;;;1.83;;